sensor_id;sensor_type;location;lat;lon;timestamp;temperature;humidity
37285;DHT22;23172;53.550;9.964;2024-02-28T00:03:40;6.90;90.50
37285;DHT22;23172;53.550;9.964;2024-02-28T00:08:42;6.90;90.50
37285;DHT22;23172;53.550;9.964;2024-02-28T00:13:44;6.80;90.50
37285;DHT22;23172;53.550;9.964;2024-02-28T00:18:47;6.80;90.50
37285;DHT22;23172;53.550;9.964;2024-02-28T00:23:49;6.80;90.30
37285;DHT22;23172;53.550;9.964;2024-02-28T00:28:51;6.90;90.60
37285;DHT22;23172;53.550;9.964;2024-02-28T00:33:55;6.90;90.70
37285;DHT22;23172;53.550;9.964;2024-02-28T00:38:57;6.90;90.60
37285;DHT22;23172;53.550;9.964;2024-02-28T00:43:59;6.80;90.30
37285;DHT22;23172;53.550;9.964;2024-02-28T00:49:02;6.80;90.60
37285;DHT22;23172;53.550;9.964;2024-02-28T00:54:04;6.80;90.70
37285;DHT22;23172;53.550;9.964;2024-02-28T00:59:06;6.80;90.70
37285;DHT22;23172;53.550;9.964;2024-02-28T01:04:12;6.70;90.60
37285;DHT22;23172;53.550;9.964;2024-02-28T01:09:14;6.70;90.80
37285;DHT22;23172;53.550;9.964;2024-02-28T01:14:16;6.70;90.90
37285;DHT22;23172;53.550;9.964;2024-02-28T01:19:20;6.70;90.70
37285;DHT22;23172;53.550;9.964;2024-02-28T01:24:22;6.70;90.60
37285;DHT22;23172;53.550;9.964;2024-02-28T01:29:23;6.70;90.70
37285;DHT22;23172;53.550;9.964;2024-02-28T01:34:27;6.70;90.80
37285;DHT22;23172;53.550;9.964;2024-02-28T01:39:28;6.70;90.90
37285;DHT22;23172;53.550;9.964;2024-02-28T01:44:30;6.60;90.80
37285;DHT22;23172;53.550;9.964;2024-02-28T01:49:34;6.70;91.00
37285;DHT22;23172;53.550;9.964;2024-02-28T01:54:36;6.60;90.80
37285;DHT22;23172;53.550;9.964;2024-02-28T01:59:37;6.60;90.80
37285;DHT22;23172;53.550;9.964;2024-02-28T02:04:41;6.50;90.70
37285;DHT22;23172;53.550;9.964;2024-02-28T02:09:43;6.60;90.80
37285;DHT22;23172;53.550;9.964;2024-02-28T02:14:47;6.50;90.60
37285;DHT22;23172;53.550;9.964;2024-02-28T02:19:50;6.40;90.70
37285;DHT22;23172;53.550;9.964;2024-02-28T02:24:53;6.30;90.90
37285;DHT22;23172;53.550;9.964;2024-02-28T02:29:55;6.30;91.20
37285;DHT22;23172;53.550;9.964;2024-02-28T02:34:57;6.30;91.20
37285;DHT22;23172;53.550;9.964;2024-02-28T02:40:00;6.20;91.30
37285;DHT22;23172;53.550;9.964;2024-02-28T02:45:03;6.10;91.30
37285;DHT22;23172;53.550;9.964;2024-02-28T02:50:05;6.10;91.40
37285;DHT22;23172;53.550;9.964;2024-02-28T02:55:09;6.10;91.60
37285;DHT22;23172;53.550;9.964;2024-02-28T03:00:11;6.10;91.50
37285;DHT22;23172;53.550;9.964;2024-02-28T03:05:13;6.00;91.60
37285;DHT22;23172;53.550;9.964;2024-02-28T03:10:17;6.10;91.60
37285;DHT22;23172;53.550;9.964;2024-02-28T03:15:19;6.10;91.70
37285;DHT22;23172;53.550;9.964;2024-02-28T03:20:21;6.10;91.80
37285;DHT22;23172;53.550;9.964;2024-02-28T03:25:24;6.10;91.70
37285;DHT22;23172;53.550;9.964;2024-02-28T03:30:26;6.10;91.80
37285;DHT22;23172;53.550;9.964;2024-02-28T03:35:28;6.20;91.70
37285;DHT22;23172;53.550;9.964;2024-02-28T03:40:31;6.20;91.40
37285;DHT22;23172;53.550;9.964;2024-02-28T03:45:37;6.20;91.70
37285;DHT22;23172;53.550;9.964;2024-02-28T03:50:39;6.20;91.70
37285;DHT22;23172;53.550;9.964;2024-02-28T03:55:42;6.20;91.70
37285;DHT22;23172;53.550;9.964;2024-02-28T04:00:45;6.20;91.70
37285;DHT22;23172;53.550;9.964;2024-02-28T04:05:47;6.30;91.60
37285;DHT22;23172;53.550;9.964;2024-02-28T04:10:50;6.30;91.60
37285;DHT22;23172;53.550;9.964;2024-02-28T04:15:52;6.30;91.40
37285;DHT22;23172;53.550;9.964;2024-02-28T04:20:54;6.40;91.30
37285;DHT22;23172;53.550;9.964;2024-02-28T04:25:57;6.40;91.30
37285;DHT22;23172;53.550;9.964;2024-02-28T04:30:59;6.40;91.50
37285;DHT22;23172;53.550;9.964;2024-02-28T04:36:01;6.40;91.50
37285;DHT22;23172;53.550;9.964;2024-02-28T04:41:05;6.40;91.50
37285;DHT22;23172;53.550;9.964;2024-02-28T04:46:06;6.50;91.50
37285;DHT22;23172;53.550;9.964;2024-02-28T04:51:08;6.50;91.50
37285;DHT22;23172;53.550;9.964;2024-02-28T04:56:12;6.50;91.60
37285;DHT22;23172;53.550;9.964;2024-02-28T05:01:13;6.50;91.50
37285;DHT22;23172;53.550;9.964;2024-02-28T05:06:16;6.50;91.60
37285;DHT22;23172;53.550;9.964;2024-02-28T05:11:19;6.50;91.70
37285;DHT22;23172;53.550;9.964;2024-02-28T05:16:21;6.50;91.80
37285;DHT22;23172;53.550;9.964;2024-02-28T05:21:23;6.50;91.90
37285;DHT22;23172;53.550;9.964;2024-02-28T05:26:26;6.40;91.80
37285;DHT22;23172;53.550;9.964;2024-02-28T05:31:28;6.40;92.00
37285;DHT22;23172;53.550;9.964;2024-02-28T05:36:31;6.30;92.30
37285;DHT22;23172;53.550;9.964;2024-02-28T05:41:34;6.30;92.50
37285;DHT22;23172;53.550;9.964;2024-02-28T05:46:36;6.20;92.90
37285;DHT22;23172;53.550;9.964;2024-02-28T05:51:38;6.10;93.10
37285;DHT22;23172;53.550;9.964;2024-02-28T05:56:41;6.10;93.30
37285;DHT22;23172;53.550;9.964;2024-02-28T06:01:44;6.10;93.70
37285;DHT22;23172;53.550;9.964;2024-02-28T06:06:46;6.10;93.80
37285;DHT22;23172;53.550;9.964;2024-02-28T06:11:50;6.10;94.00
37285;DHT22;23172;53.550;9.964;2024-02-28T06:16:52;6.10;94.30
37285;DHT22;23172;53.550;9.964;2024-02-28T06:21:54;6.20;94.40
37285;DHT22;23172;53.550;9.964;2024-02-28T06:26:57;6.20;94.50
37285;DHT22;23172;53.550;9.964;2024-02-28T06:31:59;6.10;94.10
37285;DHT22;23172;53.550;9.964;2024-02-28T06:37:01;6.20;94.50
37285;DHT22;23172;53.550;9.964;2024-02-28T06:42:05;6.20;94.70
37285;DHT22;23172;53.550;9.964;2024-02-28T06:47:07;6.30;94.90
37285;DHT22;23172;53.550;9.964;2024-02-28T06:52:09;6.30;94.90
37285;DHT22;23172;53.550;9.964;2024-02-28T06:57:13;6.40;94.90
37285;DHT22;23172;53.550;9.964;2024-02-28T07:02:14;6.40;95.00
37285;DHT22;23172;53.550;9.964;2024-02-28T07:07:16;6.40;95.10
37285;DHT22;23172;53.550;9.964;2024-02-28T07:12:19;6.50;94.90
37285;DHT22;23172;53.550;9.964;2024-02-28T07:17:21;6.50;94.80
37285;DHT22;23172;53.550;9.964;2024-02-28T07:22:23;6.50;95.00
37285;DHT22;23172;53.550;9.964;2024-02-28T07:27:27;6.60;94.90
37285;DHT22;23172;53.550;9.964;2024-02-28T07:32:28;6.60;95.10
37285;DHT22;23172;53.550;9.964;2024-02-28T07:37:35;6.60;95.20
37285;DHT22;23172;53.550;9.964;2024-02-28T07:42:39;6.60;95.20
37285;DHT22;23172;53.550;9.964;2024-02-28T07:47:42;6.60;95.50
37285;DHT22;23172;53.550;9.964;2024-02-28T07:52:44;6.80;95.50
37285;DHT22;23172;53.550;9.964;2024-02-28T07:57:47;6.80;95.30
37285;DHT22;23172;53.550;9.964;2024-02-28T08:02:52;6.90;95.30
37285;DHT22;23172;53.550;9.964;2024-02-28T08:07:54;7.10;95.60
37285;DHT22;23172;53.550;9.964;2024-02-28T08:12:57;7.20;95.40
37285;DHT22;23172;53.550;9.964;2024-02-28T08:17:59;7.30;95.30
37285;DHT22;23172;53.550;9.964;2024-02-28T08:23:01;7.50;95.50
37285;DHT22;23172;53.550;9.964;2024-02-28T08:28:05;7.60;95.20
37285;DHT22;23172;53.550;9.964;2024-02-28T08:33:07;7.90;95.50
37285;DHT22;23172;53.550;9.964;2024-02-28T08:38:11;8.30;95.60
37285;DHT22;23172;53.550;9.964;2024-02-28T08:43:14;8.70;95.20
37285;DHT22;23172;53.550;9.964;2024-02-28T08:48:16;9.00;94.20
37285;DHT22;23172;53.550;9.964;2024-02-28T08:53:18;9.20;93.60
37285;DHT22;23172;53.550;9.964;2024-02-28T08:58:21;9.40;93.10
37285;DHT22;23172;53.550;9.964;2024-02-28T09:03:23;9.40;91.90
37285;DHT22;23172;53.550;9.964;2024-02-28T09:08:25;9.60;91.70
37285;DHT22;23172;53.550;9.964;2024-02-28T09:13:28;9.60;91.20
37285;DHT22;23172;53.550;9.964;2024-02-28T09:18:30;9.80;90.80
37285;DHT22;23172;53.550;9.964;2024-02-28T09:23:32;10.10;90.40
37285;DHT22;23172;53.550;9.964;2024-02-28T09:28:35;10.30;88.70
37285;DHT22;23172;53.550;9.964;2024-02-28T09:33:37;10.50;88.30
37285;DHT22;23172;53.550;9.964;2024-02-28T09:38:39;10.60;87.30
37285;DHT22;23172;53.550;9.964;2024-02-28T09:43:44;10.70;85.60
37285;DHT22;23172;53.550;9.964;2024-02-28T09:48:48;10.60;83.50
37285;DHT22;23172;53.550;9.964;2024-02-28T09:53:51;10.80;84.70
37285;DHT22;23172;53.550;9.964;2024-02-28T09:58:54;11.10;83.30
37285;DHT22;23172;53.550;9.964;2024-02-28T10:03:57;11.20;81.80
37285;DHT22;23172;53.550;9.964;2024-02-28T10:09:01;11.30;80.40
37285;DHT22;23172;53.550;9.964;2024-02-28T10:14:04;11.40;80.50
37285;DHT22;23172;53.550;9.964;2024-02-28T10:19:06;11.40;79.60
37285;DHT22;23172;53.550;9.964;2024-02-28T10:24:11;11.10;78.30
37285;DHT22;23172;53.550;9.964;2024-02-28T10:29:15;10.90;78.00
37285;DHT22;23172;53.550;9.964;2024-02-28T10:34:18;10.60;78.10
37285;DHT22;23172;53.550;9.964;2024-02-28T10:39:22;10.50;78.50
37285;DHT22;23172;53.550;9.964;2024-02-28T10:44:26;10.40;78.80
37285;DHT22;23172;53.550;9.964;2024-02-28T10:49:28;10.30;79.40
37285;DHT22;23172;53.550;9.964;2024-02-28T10:54:31;10.30;79.80
37285;DHT22;23172;53.550;9.964;2024-02-28T10:59:37;10.40;80.00
37285;DHT22;23172;53.550;9.964;2024-02-28T11:04:40;10.80;81.10
37285;DHT22;23172;53.550;9.964;2024-02-28T11:09:42;11.10;79.90
37285;DHT22;23172;53.550;9.964;2024-02-28T11:14:56;11.30;79.40
37285;DHT22;23172;53.550;9.964;2024-02-28T11:19:58;11.30;78.70
37285;DHT22;23172;53.550;9.964;2024-02-28T11:25:01;11.20;78.50
37285;DHT22;23172;53.550;9.964;2024-02-28T11:30:08;11.20;78.80
37285;DHT22;23172;53.550;9.964;2024-02-28T11:35:10;11.30;78.90
37285;DHT22;23172;53.550;9.964;2024-02-28T11:40:12;11.40;79.20
37285;DHT22;23172;53.550;9.964;2024-02-28T11:45:16;11.40;78.10
37285;DHT22;23172;53.550;9.964;2024-02-28T11:50:18;11.40;77.70
37285;DHT22;23172;53.550;9.964;2024-02-28T11:55:20;11.30;77.50
37285;DHT22;23172;53.550;9.964;2024-02-28T12:00:23;11.10;77.90
37285;DHT22;23172;53.550;9.964;2024-02-28T12:05:25;11.00;77.90
37285;DHT22;23172;53.550;9.964;2024-02-28T12:10:28;10.90;79.00
37285;DHT22;23172;53.550;9.964;2024-02-28T12:15:32;10.80;78.40
37285;DHT22;23172;53.550;9.964;2024-02-28T12:20:34;10.80;78.90
37285;DHT22;23172;53.550;9.964;2024-02-28T12:25:37;10.80;79.20
37285;DHT22;23172;53.550;9.964;2024-02-28T12:30:42;10.90;79.70
37285;DHT22;23172;53.550;9.964;2024-02-28T12:35:44;11.00;79.50
37285;DHT22;23172;53.550;9.964;2024-02-28T12:40:45;11.00;79.30
37285;DHT22;23172;53.550;9.964;2024-02-28T12:45:49;10.80;79.10
37285;DHT22;23172;53.550;9.964;2024-02-28T12:50:51;10.80;79.60
37285;DHT22;23172;53.550;9.964;2024-02-28T12:55:53;10.80;79.70
37285;DHT22;23172;53.550;9.964;2024-02-28T13:00:56;10.60;80.00
37285;DHT22;23172;53.550;9.964;2024-02-28T13:05:58;10.60;80.40
37285;DHT22;23172;53.550;9.964;2024-02-28T13:11:00;10.70;80.60
37285;DHT22;23172;53.550;9.964;2024-02-28T13:16:03;10.80;81.00
37285;DHT22;23172;53.550;9.964;2024-02-28T13:21:05;10.90;81.30
37285;DHT22;23172;53.550;9.964;2024-02-28T13:26:07;10.90;81.00
37285;DHT22;23172;53.550;9.964;2024-02-28T13:31:10;10.90;80.80
37285;DHT22;23172;53.550;9.964;2024-02-28T13:36:13;10.90;80.90
37285;DHT22;23172;53.550;9.964;2024-02-28T13:41:15;10.80;81.20
37285;DHT22;23172;53.550;9.964;2024-02-28T13:46:19;10.80;81.90
37285;DHT22;23172;53.550;9.964;2024-02-28T13:51:21;10.80;82.10
37285;DHT22;23172;53.550;9.964;2024-02-28T13:56:23;10.70;82.90
37285;DHT22;23172;53.550;9.964;2024-02-28T14:01:27;10.60;83.80
37285;DHT22;23172;53.550;9.964;2024-02-28T14:06:29;10.50;84.60
37285;DHT22;23172;53.550;9.964;2024-02-28T14:11:31;10.40;86.20
37285;DHT22;23172;53.550;9.964;2024-02-28T14:16:34;10.40;88.20
37285;DHT22;23172;53.550;9.964;2024-02-28T14:21:36;10.40;89.20
37285;DHT22;23172;53.550;9.964;2024-02-28T14:26:38;10.40;89.90
37285;DHT22;23172;53.550;9.964;2024-02-28T14:31:41;10.50;90.00
37285;DHT22;23172;53.550;9.964;2024-02-28T14:36:43;10.50;90.10
37285;DHT22;23172;53.550;9.964;2024-02-28T14:41:45;10.50;90.10
37285;DHT22;23172;53.550;9.964;2024-02-28T14:46:48;10.40;90.60
37285;DHT22;23172;53.550;9.964;2024-02-28T14:51:52;10.40;90.60
37285;DHT22;23172;53.550;9.964;2024-02-28T14:56:54;10.40;90.70
37285;DHT22;23172;53.550;9.964;2024-02-28T15:01:57;10.40;90.80
37285;DHT22;23172;53.550;9.964;2024-02-28T15:06:59;10.40;91.40
37285;DHT22;23172;53.550;9.964;2024-02-28T15:12:03;10.40;91.10
37285;DHT22;23172;53.550;9.964;2024-02-28T15:17:07;10.40;91.20
37285;DHT22;23172;53.550;9.964;2024-02-28T15:22:09;10.40;91.10
37285;DHT22;23172;53.550;9.964;2024-02-28T15:27:11;10.40;91.10
37285;DHT22;23172;53.550;9.964;2024-02-28T15:32:14;10.40;91.10
37285;DHT22;23172;53.550;9.964;2024-02-28T15:37:16;10.30;91.10
37285;DHT22;23172;53.550;9.964;2024-02-28T15:42:18;10.30;91.30
37285;DHT22;23172;53.550;9.964;2024-02-28T15:47:21;10.30;91.50
37285;DHT22;23172;53.550;9.964;2024-02-28T15:52:23;10.20;91.70
37285;DHT22;23172;53.550;9.964;2024-02-28T15:57:25;10.20;92.00
37285;DHT22;23172;53.550;9.964;2024-02-28T16:02:28;10.20;92.20
37285;DHT22;23172;53.550;9.964;2024-02-28T16:07:31;10.20;92.40
37285;DHT22;23172;53.550;9.964;2024-02-28T16:12:32;10.10;92.90
37285;DHT22;23172;53.550;9.964;2024-02-28T16:17:36;10.00;93.30
37285;DHT22;23172;53.550;9.964;2024-02-28T16:22:42;9.90;93.60
37285;DHT22;23172;53.550;9.964;2024-02-28T16:27:43;9.90;93.80
37285;DHT22;23172;53.550;9.964;2024-02-28T16:32:47;9.80;94.20
37285;DHT22;23172;53.550;9.964;2024-02-28T16:37:49;9.80;94.30
37285;DHT22;23172;53.550;9.964;2024-02-28T16:42:51;9.70;94.80
37285;DHT22;23172;53.550;9.964;2024-02-28T16:47:54;9.70;95.20
37285;DHT22;23172;53.550;9.964;2024-02-28T16:52:56;9.60;95.00
37285;DHT22;23172;53.550;9.964;2024-02-28T16:57:57;9.60;95.20
37285;DHT22;23172;53.550;9.964;2024-02-28T17:03:06;9.60;95.20
37285;DHT22;23172;53.550;9.964;2024-02-28T17:08:08;9.50;95.70
37285;DHT22;23172;53.550;9.964;2024-02-28T17:13:10;9.50;95.60
37285;DHT22;23172;53.550;9.964;2024-02-28T17:18:15;9.50;95.70
37285;DHT22;23172;53.550;9.964;2024-02-28T17:23:17;9.50;95.80
37285;DHT22;23172;53.550;9.964;2024-02-28T17:28:19;9.50;96.00
37285;DHT22;23172;53.550;9.964;2024-02-28T17:33:22;9.50;96.20
37285;DHT22;23172;53.550;9.964;2024-02-28T17:38:26;9.40;96.40
37285;DHT22;23172;53.550;9.964;2024-02-28T17:43:28;9.40;96.60
37285;DHT22;23172;53.550;9.964;2024-02-28T17:48:31;9.40;96.60
37285;DHT22;23172;53.550;9.964;2024-02-28T17:53:35;9.40;96.70
37285;DHT22;23172;53.550;9.964;2024-02-28T17:58:37;9.40;96.80
37285;DHT22;23172;53.550;9.964;2024-02-28T18:03:40;9.40;96.80
37285;DHT22;23172;53.550;9.964;2024-02-28T18:08:42;9.30;96.90
37285;DHT22;23172;53.550;9.964;2024-02-28T18:13:44;9.30;97.00
37285;DHT22;23172;53.550;9.964;2024-02-28T18:18:47;9.20;97.10
37285;DHT22;23172;53.550;9.964;2024-02-28T18:23:49;9.20;97.10
37285;DHT22;23172;53.550;9.964;2024-02-28T18:28:51;9.20;97.20
37285;DHT22;23172;53.550;9.964;2024-02-28T18:33:54;9.20;97.30
37285;DHT22;23172;53.550;9.964;2024-02-28T18:38:56;9.10;97.40
37285;DHT22;23172;53.550;9.964;2024-02-28T18:43:59;9.10;97.50
37285;DHT22;23172;53.550;9.964;2024-02-28T18:49:03;9.00;97.70
37285;DHT22;23172;53.550;9.964;2024-02-28T18:54:05;8.90;97.90
37285;DHT22;23172;53.550;9.964;2024-02-28T18:59:07;8.90;98.10
37285;DHT22;23172;53.550;9.964;2024-02-28T19:04:10;8.80;98.20
37285;DHT22;23172;53.550;9.964;2024-02-28T19:09:12;8.80;98.30
37285;DHT22;23172;53.550;9.964;2024-02-28T19:14:14;8.80;98.40
37285;DHT22;23172;53.550;9.964;2024-02-28T19:19:18;8.90;98.50
37285;DHT22;23172;53.550;9.964;2024-02-28T19:24:20;8.80;98.50
37285;DHT22;23172;53.550;9.964;2024-02-28T19:29:22;8.80;98.70
37285;DHT22;23172;53.550;9.964;2024-02-28T19:34:25;8.80;99.20
37285;DHT22;23172;53.550;9.964;2024-02-28T19:39:27;8.80;98.90
37285;DHT22;23172;53.550;9.964;2024-02-28T19:44:29;8.80;99.00
37285;DHT22;23172;53.550;9.964;2024-02-28T19:49:32;8.80;99.00
37285;DHT22;23172;53.550;9.964;2024-02-28T19:54:36;8.80;99.10
37285;DHT22;23172;53.550;9.964;2024-02-28T19:59:38;8.80;99.10
37285;DHT22;23172;53.550;9.964;2024-02-28T20:04:42;8.90;99.10
37285;DHT22;23172;53.550;9.964;2024-02-28T20:09:43;8.90;99.00
37285;DHT22;23172;53.550;9.964;2024-02-28T20:14:45;8.90;98.90
37285;DHT22;23172;53.550;9.964;2024-02-28T20:19:49;8.70;98.90
37285;DHT22;23172;53.550;9.964;2024-02-28T20:24:51;8.70;99.00
37285;DHT22;23172;53.550;9.964;2024-02-28T20:29:53;8.60;99.20
37285;DHT22;23172;53.550;9.964;2024-02-28T20:34:56;8.60;99.20
37285;DHT22;23172;53.550;9.964;2024-02-28T20:39:58;8.50;99.20
37285;DHT22;23172;53.550;9.964;2024-02-28T20:45:00;8.40;99.30
37285;DHT22;23172;53.550;9.964;2024-02-28T20:50:08;8.40;99.50
37285;DHT22;23172;53.550;9.964;2024-02-28T21:00:13;8.20;99.80
37285;DHT22;23172;53.550;9.964;2024-02-28T21:05:17;8.20;99.70
37285;DHT22;23172;53.550;9.964;2024-02-28T21:10:19;8.20;99.80
37285;DHT22;23172;53.550;9.964;2024-02-28T21:15:21;8.10;99.80
37285;DHT22;23172;53.550;9.964;2024-02-28T21:20:25;8.00;99.90
37285;DHT22;23172;53.550;9.964;2024-02-28T21:25:29;8.00;99.90
37285;DHT22;23172;53.550;9.964;2024-02-28T21:30:31;8.00;99.90
37285;DHT22;23172;53.550;9.964;2024-02-28T21:35:34;7.90;99.90
37285;DHT22;23172;53.550;9.964;2024-02-28T21:40:36;7.90;99.90
37285;DHT22;23172;53.550;9.964;2024-02-28T21:45:38;7.90;99.90
37285;DHT22;23172;53.550;9.964;2024-02-28T21:50:41;7.90;99.90
37285;DHT22;23172;53.550;9.964;2024-02-28T21:55:43;7.80;99.90
37285;DHT22;23172;53.550;9.964;2024-02-28T22:00:45;7.80;99.90
37285;DHT22;23172;53.550;9.964;2024-02-28T22:05:49;7.70;99.90
37285;DHT22;23172;53.550;9.964;2024-02-28T22:10:50;7.70;99.90
37285;DHT22;23172;53.550;9.964;2024-02-28T22:15:52;7.70;99.90
37285;DHT22;23172;53.550;9.964;2024-02-28T22:20:55;7.70;99.90
37285;DHT22;23172;53.550;9.964;2024-02-28T22:25:57;7.60;99.90
37285;DHT22;23172;53.550;9.964;2024-02-28T22:30:59;7.50;99.90
37285;DHT22;23172;53.550;9.964;2024-02-28T22:36:06;7.50;99.90
37285;DHT22;23172;53.550;9.964;2024-02-28T22:41:08;7.40;99.90
37285;DHT22;23172;53.550;9.964;2024-02-28T22:46:10;7.50;99.90
37285;DHT22;23172;53.550;9.964;2024-02-28T22:51:13;7.50;99.90
37285;DHT22;23172;53.550;9.964;2024-02-28T22:56:15;7.50;99.90
37285;DHT22;23172;53.550;9.964;2024-02-28T23:01:17;7.50;99.90
37285;DHT22;23172;53.550;9.964;2024-02-28T23:06:21;7.40;99.90
37285;DHT22;23172;53.550;9.964;2024-02-28T23:11:23;7.40;99.90
37285;DHT22;23172;53.550;9.964;2024-02-28T23:16:25;7.40;99.90
37285;DHT22;23172;53.550;9.964;2024-02-28T23:21:30;7.30;99.90
37285;DHT22;23172;53.550;9.964;2024-02-28T23:26:35;7.40;99.90
37285;DHT22;23172;53.550;9.964;2024-02-28T23:31:37;7.30;99.90
37285;DHT22;23172;53.550;9.964;2024-02-28T23:36:41;7.30;99.90
37285;DHT22;23172;53.550;9.964;2024-02-28T23:41:45;7.30;99.90
37285;DHT22;23172;53.550;9.964;2024-02-28T23:46:47;7.30;99.90
37285;DHT22;23172;53.550;9.964;2024-02-28T23:51:50;7.20;99.90
37285;DHT22;23172;53.550;9.964;2024-02-28T23:56:52;7.20;99.90
